createdAt,value
2023-05-18T00:02:21.981Z,8.95
2023-05-18T00:04:49.198Z,10.50
2023-05-18T00:07:16.231Z,9.08
2023-05-18T00:09:43.315Z,9.10
2023-05-18T00:12:10.663Z,9.63
2023-05-18T00:14:37.804Z,10.52
2023-05-18T00:17:05.075Z,9.49
2023-05-18T00:19:32.325Z,9.21
2023-05-18T00:21:59.457Z,10.56
2023-05-18T00:24:26.640Z,10.28
2023-05-18T00:26:53.788Z,9.37
2023-05-18T00:29:20.955Z,9.48
2023-05-18T00:31:48.237Z,9.91
2023-05-18T00:34:16.216Z,10.20
2023-05-18T00:36:43.434Z,10.30
2023-05-18T00:39:10.522Z,10.47
2023-05-18T00:41:37.753Z,10.19
2023-05-18T00:44:05.236Z,10.58
2023-05-18T00:46:33.006Z,9.15
2023-05-18T00:49:02.305Z,9.53
2023-05-18T00:51:30.174Z,10.18
2023-05-18T00:54:00.384Z,10.28
2023-05-18T00:56:28.754Z,10.66
2023-05-18T00:58:57.491Z,10.64
2023-05-18T01:01:30.063Z,10.52
2023-05-18T01:04:04.260Z,10.28
2023-05-18T01:06:42.062Z,10.71
2023-05-18T01:09:13.906Z,10.22
2023-05-18T01:11:46.670Z,9.80
2023-05-18T01:14:30.728Z,8.47
2023-05-18T01:17:22.122Z,10.62
2023-05-18T01:19:52.594Z,10.63
2023-05-18T01:22:43.109Z,10.49
2023-05-18T01:25:30.087Z,10.30
2023-05-18T01:28:06.635Z,10.33
2023-05-18T01:30:36.332Z,9.69
2023-05-18T01:33:11.035Z,9.94
2023-05-18T01:35:38.500Z,10.59
2023-05-18T01:38:05.607Z,10.34
2023-05-18T01:40:37.874Z,10.57
2023-05-18T01:43:13.831Z,10.58
2023-05-18T01:45:47.315Z,10.19
2023-05-18T01:48:21.292Z,9.87
2023-05-18T01:50:49.297Z,10.51
2023-05-18T01:53:25.206Z,10.62
2023-05-18T01:55:54.711Z,10.61
2023-05-18T01:58:22.971Z,10.06
2023-05-18T02:00:50.730Z,10.39
2023-05-18T02:03:17.971Z,10.62
2023-05-18T02:05:45.122Z,10.60
2023-05-18T02:08:12.836Z,10.56
2023-05-18T02:10:40.079Z,10.67
2023-05-18T02:13:08.051Z,10.57
2023-05-18T02:15:35.922Z,10.60
2023-05-18T02:18:03.355Z,9.32
2023-05-18T02:20:33.783Z,9.54
2023-05-18T02:23:01.078Z,10.14
2023-05-18T02:25:29.051Z,9.85
2023-05-18T02:27:57.759Z,9.81
2023-05-18T02:30:24.961Z,10.16
2023-05-18T02:32:52.220Z,10.09
2023-05-18T02:35:19.413Z,10.55
2023-05-18T02:37:47.531Z,9.88
2023-05-18T02:40:16.313Z,10.46
2023-05-18T02:42:44.022Z,9.82
2023-05-18T02:45:12.210Z,9.93
2023-05-18T02:47:44.262Z,10.25
2023-05-18T02:50:12.175Z,10.15
2023-05-18T02:52:40.296Z,10.37
2023-05-18T02:55:07.664Z,10.22
2023-05-18T02:57:57.362Z,10.43
2023-05-18T03:00:40.060Z,9.69
2023-05-18T03:03:11.100Z,9.71
2023-05-18T03:05:38.355Z,9.68
2023-05-18T03:08:07.119Z,10.14
2023-05-18T03:10:34.351Z,9.74
2023-05-18T03:13:01.612Z,9.93
2023-05-18T03:15:31.860Z,9.65
2023-05-18T03:18:02.348Z,9.89
2023-05-18T03:20:31.804Z,9.42
2023-05-18T03:22:58.938Z,9.95
2023-05-18T03:25:26.724Z,9.46
2023-05-18T03:28:01.124Z,9.91
2023-05-18T03:30:28.735Z,9.92
2023-05-18T03:32:56.833Z,9.86
2023-05-18T03:35:24.064Z,9.83
2023-05-18T03:37:51.219Z,9.74
2023-05-18T03:40:19.616Z,9.65
2023-05-18T03:42:47.486Z,9.55
2023-05-18T03:45:14.699Z,9.05
2023-05-18T03:47:43.244Z,9.27
2023-05-18T03:50:10.950Z,9.55
2023-05-18T03:52:39.404Z,9.16
2023-05-18T03:55:07.867Z,8.59
2023-05-18T03:57:34.974Z,8.71
2023-05-18T04:00:12.001Z,9.32
2023-05-18T04:02:45.158Z,9.23
2023-05-18T04:05:15.533Z,9.46
2023-05-18T04:07:46.487Z,8.63
2023-05-18T04:10:14.446Z,9.69
2023-05-18T04:12:43.187Z,8.50
2023-05-18T04:15:14.776Z,9.33
2023-05-18T04:17:47.531Z,9.61
2023-05-18T04:20:14.976Z,9.36
2023-05-18T04:22:44.030Z,9.07
2023-05-18T04:25:11.908Z,9.86
2023-05-18T04:27:40.227Z,9.87
2023-05-18T04:30:08.868Z,9.40
2023-05-18T04:32:36.714Z,9.70
2023-05-18T04:35:08.187Z,8.61
2023-05-18T04:37:35.401Z,9.08
2023-05-18T04:40:07.571Z,8.39
2023-05-18T04:42:38.432Z,9.49
2023-05-18T04:45:06.196Z,8.56
2023-05-18T04:47:34.546Z,8.70
2023-05-18T04:50:02.357Z,9.28
2023-05-18T04:52:31.042Z,10.14
2023-05-18T04:54:58.177Z,10.05
2023-05-18T04:57:28.771Z,9.42
2023-05-18T04:59:55.867Z,9.86
2023-05-18T05:02:23.084Z,9.94
2023-05-18T05:04:50.241Z,10.38
2023-05-18T05:07:20.025Z,10.26
2023-05-18T05:09:47.419Z,9.80
2023-05-18T05:12:14.469Z,10.49
2023-05-18T05:14:41.531Z,9.99
2023-05-18T05:17:08.709Z,10.05
2023-05-18T05:19:35.820Z,10.68
2023-05-18T05:22:02.953Z,10.42
2023-05-18T05:24:30.125Z,9.41
2023-05-18T05:26:57.274Z,9.76
2023-05-18T05:29:26.559Z,10.59
2023-05-18T05:31:54.029Z,10.45
2023-05-18T05:34:21.128Z,10.93
2023-05-18T05:36:48.498Z,10.90
2023-05-18T05:39:15.794Z,11.13
2023-05-18T05:41:43.114Z,10.89
2023-05-18T05:44:11.676Z,10.13
2023-05-18T05:46:39.010Z,11.21
2023-05-18T05:49:08.446Z,10.86
2023-05-18T05:51:35.771Z,11.21
2023-05-18T05:54:11.008Z,10.60
2023-05-18T05:56:38.582Z,11.26
2023-05-18T05:59:05.706Z,10.72
2023-05-18T06:01:32.885Z,10.99
2023-05-18T06:03:59.973Z,10.93
2023-05-18T06:06:27.758Z,10.87
2023-05-18T06:08:54.901Z,11.06
2023-05-18T06:11:22.852Z,10.93
2023-05-18T06:13:50.239Z,11.23
2023-05-18T06:16:17.531Z,9.97
2023-05-18T06:18:44.760Z,10.93
2023-05-18T06:21:11.890Z,11.40
2023-05-18T06:23:41.693Z,11.34
2023-05-18T06:26:23.134Z,11.22
2023-05-18T06:29:01.555Z,11.49
2023-05-18T06:31:32.620Z,11.56
2023-05-18T06:34:07.662Z,11.41
2023-05-18T06:36:35.350Z,11.05
2023-05-18T06:39:02.437Z,11.44
2023-05-18T06:41:29.575Z,11.46
2023-05-18T06:44:00.374Z,11.47
2023-05-18T06:46:35.890Z,11.34
2023-05-18T06:49:09.045Z,11.82
2023-05-18T06:51:36.111Z,11.67
2023-05-18T06:54:04.546Z,11.71
2023-05-18T06:56:31.581Z,11.98
2023-05-18T06:59:00.269Z,12.00
2023-05-18T07:01:30.102Z,12.04
2023-05-18T07:04:00.652Z,11.97
2023-05-18T07:06:28.255Z,12.13
2023-05-18T07:08:56.434Z,11.73
2023-05-18T07:11:23.676Z,12.15
2023-05-18T07:13:50.736Z,11.42
2023-05-18T07:16:17.983Z,11.76
2023-05-18T07:18:45.173Z,12.12
2023-05-18T07:21:12.501Z,12.10
2023-05-18T07:23:39.660Z,12.05
2023-05-18T07:26:10.309Z,11.59
2023-05-18T07:28:37.485Z,12.34
2023-05-18T07:31:05.456Z,12.08
2023-05-18T07:33:33.102Z,11.66
2023-05-18T07:36:00.158Z,11.45
2023-05-18T07:38:27.550Z,11.94
2023-05-18T07:40:54.637Z,12.37
2023-05-18T07:43:21.721Z,12.05
2023-05-18T07:45:48.814Z,12.28
2023-05-18T07:48:16.024Z,12.44
2023-05-18T07:50:43.140Z,11.73
2023-05-18T07:53:10.440Z,12.64
2023-05-18T07:55:37.596Z,12.74
2023-05-18T07:58:04.877Z,12.82
2023-05-18T08:00:32.041Z,12.68
2023-05-18T08:03:01.010Z,12.95
2023-05-18T08:05:28.490Z,12.52
2023-05-18T08:07:55.781Z,12.77
2023-05-18T08:10:23.048Z,12.17
2023-05-18T08:12:50.063Z,12.07
2023-05-18T08:15:17.299Z,12.94
2023-05-18T08:17:44.512Z,13.33
2023-05-18T08:20:12.070Z,13.12
2023-05-18T08:22:39.208Z,13.44
2023-05-18T08:25:07.116Z,13.42
2023-05-18T08:27:34.314Z,13.45
2023-05-18T08:30:01.903Z,13.13
2023-05-18T08:32:29.103Z,13.11
2023-05-18T08:34:56.301Z,12.86
2023-05-18T08:37:29.637Z,12.83
2023-05-18T08:39:57.461Z,13.09
2023-05-18T08:42:50.474Z,12.18
2023-05-18T08:45:39.325Z,13.38
2023-05-18T08:48:07.955Z,12.11
2023-05-18T08:50:36.272Z,12.89
2023-05-18T08:53:06.811Z,12.22
2023-05-18T08:55:37.725Z,12.67
2023-05-18T08:58:13.571Z,12.78
2023-05-18T09:00:41.213Z,12.08
2023-05-18T09:03:09.367Z,12.91
2023-05-18T09:05:36.649Z,12.31
2023-05-18T09:08:06.147Z,12.69
2023-05-18T09:10:34.345Z,12.50
2023-05-18T09:13:05.504Z,11.77
2023-05-18T09:15:35.936Z,12.21
2023-05-18T09:18:12.684Z,11.83
2023-05-18T09:20:40.112Z,10.54
2023-05-18T09:23:07.427Z,11.13
2023-05-18T09:25:37.080Z,11.70
2023-05-18T09:28:05.271Z,11.63
2023-05-18T09:30:40.630Z,11.24
2023-05-18T09:33:19.459Z,10.38
2023-05-18T09:35:47.376Z,11.69
2023-05-18T09:38:23.410Z,10.94
2023-05-18T09:40:51.002Z,10.90
2023-05-18T09:43:19.363Z,11.36
2023-05-18T09:45:49.007Z,11.73
2023-05-18T09:48:16.909Z,11.77
2023-05-18T09:50:45.353Z,11.53
2023-05-18T09:53:14.258Z,11.35
2023-05-18T09:55:49.564Z,10.52
2023-05-18T09:58:17.128Z,11.28
2023-05-18T10:00:51.951Z,11.02
2023-05-18T10:03:23.223Z,11.63
2023-05-18T10:05:51.087Z,11.65
2023-05-18T10:08:18.399Z,11.21
2023-05-18T10:10:48.024Z,11.52
2023-05-18T10:13:21.259Z,11.55
2023-05-18T10:15:57.970Z,11.52
2023-05-18T10:18:35.784Z,11.54
2023-05-18T10:21:07.184Z,11.53
2023-05-18T10:23:35.792Z,11.16
2023-05-18T10:26:10.431Z,11.23
2023-05-18T10:28:45.932Z,11.44
2023-05-18T10:31:15.591Z,11.39
2023-05-18T10:33:44.204Z,11.12
2023-05-18T10:36:11.981Z,11.35
2023-05-18T10:38:40.132Z,11.47
2023-05-18T10:41:08.347Z,10.39
2023-05-18T10:43:36.786Z,11.55
2023-05-18T10:46:08.098Z,11.12
2023-05-18T10:48:41.843Z,10.96
2023-05-18T10:51:09.460Z,9.84
2023-05-18T10:53:37.184Z,11.40
2023-05-18T10:56:04.534Z,10.79
2023-05-18T10:58:40.507Z,9.70
2023-05-18T11:01:12.021Z,10.13
2023-05-18T11:03:41.322Z,11.96
2023-05-18T11:06:11.876Z,12.13
2023-05-18T11:08:51.464Z,12.04
2023-05-18T11:11:23.633Z,10.93
2023-05-18T11:13:54.394Z,12.28
2023-05-18T11:16:42.320Z,12.04
2023-05-18T11:19:12.923Z,11.67
2023-05-18T11:21:41.886Z,12.03
2023-05-18T11:24:18.864Z,12.20
2023-05-18T11:26:48.628Z,12.06
2023-05-18T11:29:40.164Z,12.40
2023-05-18T11:32:30.500Z,12.37
2023-05-18T11:34:59.593Z,12.33
2023-05-18T11:37:38.624Z,12.42
2023-05-18T11:40:11.283Z,12.45
2023-05-18T11:42:38.930Z,12.04
2023-05-18T11:45:10.752Z,12.07
2023-05-18T11:47:49.738Z,12.53
2023-05-18T11:50:18.003Z,12.53
2023-05-18T11:52:50.052Z,12.59
2023-05-18T11:55:19.990Z,12.56
2023-05-18T11:57:53.141Z,12.40
2023-05-18T12:00:21.180Z,11.92
2023-05-18T12:02:49.364Z,12.49
2023-05-18T12:05:17.462Z,12.31
2023-05-18T12:07:45.691Z,12.48
2023-05-18T12:10:17.801Z,12.66
2023-05-18T12:12:52.612Z,12.75
2023-05-18T12:15:23.182Z,12.68
2023-05-18T12:17:51.564Z,12.56
2023-05-18T12:20:20.904Z,11.99
2023-05-18T12:22:55.156Z,12.07
2023-05-18T12:25:24.591Z,12.11
2023-05-18T12:27:53.856Z,12.31
2023-05-18T12:30:23.777Z,12.61
2023-05-18T12:32:56.353Z,12.69
2023-05-18T12:35:24.488Z,12.30
2023-05-18T12:37:52.029Z,11.97
2023-05-18T12:40:20.376Z,11.37
2023-05-18T12:43:04.484Z,11.50
2023-05-18T12:45:33.212Z,11.46
2023-05-18T12:48:06.245Z,12.54
2023-05-18T12:50:33.408Z,12.43
2023-05-18T12:53:02.005Z,12.05
2023-05-18T12:55:31.199Z,12.30
2023-05-18T12:58:19.099Z,12.33
2023-05-18T13:00:48.356Z,12.20
2023-05-18T13:03:17.461Z,12.51
2023-05-18T13:05:46.395Z,12.70
2023-05-18T13:08:22.268Z,12.89
2023-05-18T13:11:01.297Z,12.56
2023-05-18T13:13:28.853Z,11.78
2023-05-18T13:15:56.485Z,12.63
2023-05-18T13:18:23.689Z,12.49
2023-05-18T13:20:53.711Z,12.83
2023-05-18T13:23:29.355Z,12.53
2023-05-18T13:25:58.674Z,12.82
2023-05-18T13:28:27.247Z,12.71
2023-05-18T13:30:54.796Z,11.65
2023-05-18T13:33:21.907Z,12.28
2023-05-18T13:35:50.235Z,12.37
2023-05-18T13:38:17.695Z,11.60
2023-05-18T13:40:46.610Z,11.80
2023-05-18T13:43:14.076Z,11.64
2023-05-18T13:45:42.379Z,12.26
2023-05-18T13:48:10.925Z,12.09
2023-05-18T13:50:42.593Z,11.99
2023-05-18T13:53:09.851Z,12.12
2023-05-18T13:55:37.251Z,11.79
2023-05-18T13:58:04.363Z,11.49
2023-05-18T14:00:33.992Z,12.21
2023-05-18T14:03:01.550Z,11.65
2023-05-18T14:05:29.188Z,12.09
2023-05-18T14:07:56.995Z,11.76
2023-05-18T14:10:24.314Z,11.64
2023-05-18T14:12:51.469Z,12.03
2023-05-18T14:15:18.491Z,12.13
2023-05-18T14:17:45.650Z,10.49
2023-05-18T14:20:13.150Z,12.07
2023-05-18T14:22:40.592Z,12.08
2023-05-18T14:25:08.106Z,11.45
2023-05-18T14:27:35.298Z,11.53
2023-05-18T14:30:02.670Z,11.59
2023-05-18T14:32:29.993Z,12.01
2023-05-18T14:34:58.332Z,12.23
2023-05-18T14:37:26.199Z,12.32
2023-05-18T14:39:53.308Z,11.97
2023-05-18T14:42:20.323Z,11.25
2023-05-18T14:44:47.421Z,12.14
2023-05-18T14:47:14.811Z,11.63
2023-05-18T14:49:42.149Z,11.52
2023-05-18T14:52:09.309Z,11.79
2023-05-18T14:54:36.876Z,11.74
2023-05-18T14:57:04.690Z,12.11
2023-05-18T14:59:31.905Z,11.84
2023-05-18T15:01:59.053Z,11.47
2023-05-18T15:04:26.252Z,12.03
2023-05-18T15:06:53.589Z,11.27
2023-05-18T15:09:20.810Z,12.15
2023-05-18T15:11:47.938Z,12.06
2023-05-18T15:14:15.344Z,12.09
2023-05-18T15:16:46.839Z,11.69
2023-05-18T15:19:14.006Z,11.84
2023-05-18T15:21:41.188Z,12.05
2023-05-18T15:24:08.382Z,11.57
2023-05-18T15:26:35.922Z,11.86
2023-05-18T15:29:02.958Z,11.66
2023-05-18T15:31:30.093Z,11.64
2023-05-18T15:33:57.249Z,11.33
2023-05-18T15:36:24.496Z,11.54
2023-05-18T15:38:51.555Z,11.74
2023-05-18T15:41:19.407Z,11.84
2023-05-18T15:43:46.908Z,11.92
2023-05-18T15:46:14.067Z,11.90
2023-05-18T15:48:41.190Z,11.38
2023-05-18T15:51:08.313Z,11.73
2023-05-18T15:53:35.477Z,11.20
2023-05-18T15:56:02.709Z,10.31
2023-05-18T15:58:29.942Z,11.56
2023-05-18T16:00:57.531Z,11.60
2023-05-18T16:03:24.898Z,11.83
2023-05-18T16:05:52.162Z,11.82
2023-05-18T16:08:20.664Z,11.23
2023-05-18T16:10:47.678Z,11.15
2023-05-18T16:13:15.365Z,11.29
2023-05-18T16:15:42.522Z,11.52
2023-05-18T16:18:09.742Z,11.57
2023-05-18T16:20:36.990Z,11.73
2023-05-18T16:23:04.207Z,11.20
2023-05-18T16:25:32.882Z,11.48
2023-05-18T16:28:00.012Z,10.94
2023-05-18T16:30:27.388Z,10.68
2023-05-18T16:32:54.691Z,11.33
2023-05-18T16:35:21.852Z,10.67
2023-05-18T16:37:48.895Z,11.56
2023-05-18T16:40:16.051Z,11.15
2023-05-18T16:42:47.422Z,11.09
2023-05-18T16:45:15.202Z,10.69
2023-05-18T16:47:42.512Z,11.05
2023-05-18T16:50:10.408Z,11.48
2023-05-18T16:52:37.581Z,11.53
2023-05-18T16:55:04.946Z,10.84
2023-05-18T16:57:34.050Z,11.35
2023-05-18T17:00:01.372Z,10.89
2023-05-18T17:02:28.967Z,11.27
2023-05-18T17:04:56.334Z,11.06
2023-05-18T17:07:23.472Z,10.33
2023-05-18T17:09:50.653Z,10.97
2023-05-18T17:12:17.656Z,11.50
2023-05-18T17:14:44.680Z,10.88
2023-05-18T17:17:12.036Z,11.46
2023-05-18T17:19:39.963Z,11.19
2023-05-18T17:22:07.126Z,10.96
2023-05-18T17:24:34.181Z,11.39
2023-05-18T17:27:01.848Z,10.72
2023-05-18T17:29:29.097Z,10.67
2023-05-18T17:31:59.366Z,11.19
2023-05-18T17:34:30.796Z,11.05
2023-05-18T17:36:58.868Z,11.33
2023-05-18T17:39:26.475Z,10.54
2023-05-18T17:41:54.527Z,11.25
2023-05-18T17:44:21.759Z,9.88
2023-05-18T17:46:49.195Z,10.15
2023-05-18T17:49:16.432Z,10.75
2023-05-18T17:51:44.078Z,10.64
2023-05-18T17:54:11.665Z,10.03
2023-05-18T17:56:39.186Z,10.08
2023-05-18T17:59:06.931Z,10.56
2023-05-18T18:01:34.607Z,11.16
2023-05-18T18:04:02.178Z,11.05
2023-05-18T18:06:29.547Z,10.33
2023-05-18T18:08:58.607Z,11.02
2023-05-18T18:11:26.979Z,10.87
2023-05-18T18:13:54.695Z,10.31
2023-05-18T18:16:22.563Z,10.45
2023-05-18T18:18:50.788Z,10.95
2023-05-18T18:21:18.301Z,10.47
2023-05-18T18:23:45.403Z,9.24
2023-05-18T18:26:12.910Z,10.53
2023-05-18T18:28:40.143Z,10.08
2023-05-18T18:31:07.459Z,8.58
2023-05-18T18:33:34.895Z,10.62
2023-05-18T18:36:04.041Z,10.34
2023-05-18T18:38:31.449Z,10.09
2023-05-18T18:41:01.911Z,9.92
2023-05-18T18:43:29.229Z,9.94
2023-05-18T18:45:57.494Z,8.88
2023-05-18T18:48:25.707Z,10.46
2023-05-18T18:50:53.523Z,9.68
2023-05-18T18:53:20.731Z,9.33
2023-05-18T18:55:48.499Z,10.35
2023-05-18T18:58:16.022Z,9.93
2023-05-18T19:00:43.945Z,9.66
2023-05-18T19:03:11.125Z,9.92
2023-05-18T19:05:39.158Z,10.42
2023-05-18T19:08:06.445Z,10.11
2023-05-18T19:10:34.503Z,10.35
2023-05-18T19:13:05.864Z,9.81
2023-05-18T19:15:34.761Z,10.39
2023-05-18T19:18:02.540Z,10.46
2023-05-18T19:20:31.412Z,9.79
2023-05-18T19:22:58.688Z,9.90
2023-05-18T19:25:29.235Z,9.62
2023-05-18T19:27:56.637Z,9.23
2023-05-18T19:30:23.856Z,10.36
2023-05-18T19:32:52.819Z,10.10
2023-05-18T19:35:21.313Z,10.08
2023-05-18T19:37:48.556Z,9.80
2023-05-18T19:40:16.937Z,9.85
2023-05-18T19:42:44.596Z,10.17
2023-05-18T19:45:11.759Z,9.92
2023-05-18T19:47:38.949Z,8.84
2023-05-18T19:50:08.274Z,9.68
2023-05-18T19:52:35.326Z,10.16
2023-05-18T19:55:04.070Z,8.89
2023-05-18T19:57:31.130Z,8.28
2023-05-18T19:59:58.265Z,10.19
2023-05-18T20:02:25.794Z,9.60
2023-05-18T20:05:00.609Z,10.21
2023-05-18T20:07:28.316Z,9.84
2023-05-18T20:09:55.874Z,10.13
2023-05-18T20:12:23.079Z,8.85
2023-05-18T20:14:51.440Z,9.93
2023-05-18T20:17:18.866Z,10.24
2023-05-18T20:19:50.858Z,10.25
2023-05-18T20:22:18.615Z,10.23
2023-05-18T20:24:46.216Z,8.79
2023-05-18T20:27:14.987Z,10.25
2023-05-18T20:29:42.674Z,10.02
2023-05-18T20:32:10.132Z,10.27
2023-05-18T20:34:37.385Z,10.28
2023-05-18T20:37:05.692Z,10.32
2023-05-18T20:39:33.066Z,9.88
2023-05-18T20:42:00.437Z,10.23
2023-05-18T20:44:28.975Z,10.35
2023-05-18T20:46:56.121Z,10.36
2023-05-18T20:49:25.092Z,9.79
2023-05-18T20:51:52.467Z,10.35
2023-05-18T20:54:21.488Z,10.18
2023-05-18T20:56:49.159Z,9.90
2023-05-18T20:59:16.473Z,10.28
2023-05-18T21:01:43.710Z,10.29
2023-05-18T21:04:13.191Z,9.74
2023-05-18T21:06:41.165Z,10.33
2023-05-18T21:09:08.406Z,10.19
2023-05-18T21:11:35.663Z,9.70
2023-05-18T21:14:02.808Z,10.40
2023-05-18T21:16:29.944Z,10.39
2023-05-18T21:18:57.385Z,10.08
2023-05-18T21:21:24.558Z,9.11
2023-05-18T21:23:51.854Z,10.19
2023-05-18T21:26:18.963Z,9.97
2023-05-18T21:28:49.120Z,10.32
2023-05-18T21:31:16.709Z,9.93
2023-05-18T21:33:48.149Z,8.88
2023-05-18T21:36:16.638Z,10.16
2023-05-18T21:38:43.782Z,10.03
2023-05-18T21:41:12.092Z,10.39
2023-05-18T21:43:39.174Z,9.63
2023-05-18T21:46:09.185Z,8.49
2023-05-18T21:48:36.641Z,9.83
2023-05-18T21:51:04.825Z,9.67
2023-05-18T21:53:31.865Z,9.12
2023-05-18T21:55:58.930Z,9.02
2023-05-18T21:58:25.955Z,10.15
2023-05-18T22:00:53.047Z,10.28
2023-05-18T22:03:20.168Z,9.60
2023-05-18T22:05:47.439Z,10.27
2023-05-18T22:08:14.458Z,10.21
2023-05-18T22:10:41.860Z,10.20
2023-05-18T22:13:09.581Z,9.80
2023-05-18T22:15:37.427Z,9.58
2023-05-18T22:18:04.823Z,9.73
2023-05-18T22:20:32.709Z,10.15
2023-05-18T22:23:00.211Z,9.98
2023-05-18T22:25:27.453Z,9.50
2023-05-18T22:27:54.647Z,8.71
2023-05-18T22:30:23.863Z,9.84
2023-05-18T22:32:52.035Z,9.70
2023-05-18T22:35:19.198Z,10.22
2023-05-18T22:37:46.779Z,10.07
2023-05-18T22:40:19.668Z,9.26
2023-05-18T22:42:46.799Z,10.11
2023-05-18T22:45:14.136Z,9.86
2023-05-18T22:47:41.641Z,10.33
2023-05-18T22:50:09.461Z,9.75
2023-05-18T22:52:36.912Z,10.19
2023-05-18T22:55:05.801Z,10.24
2023-05-18T22:57:32.858Z,8.43
2023-05-18T22:59:59.909Z,9.89
2023-05-18T23:02:27.474Z,10.21
2023-05-18T23:04:54.663Z,9.47
2023-05-18T23:07:24.697Z,9.76
2023-05-18T23:09:52.386Z,8.85
2023-05-18T23:12:20.510Z,10.27
2023-05-18T23:14:49.924Z,10.12
2023-05-18T23:17:18.977Z,9.67
2023-05-18T23:19:52.784Z,10.21
2023-05-18T23:22:20.252Z,9.95
2023-05-18T23:24:49.607Z,9.89
2023-05-18T23:27:16.895Z,9.54
2023-05-18T23:29:44.787Z,9.25
2023-05-18T23:32:12.070Z,9.28
2023-05-18T23:34:39.447Z,9.29
2023-05-18T23:37:06.957Z,9.46
2023-05-18T23:39:34.761Z,9.23
2023-05-18T23:42:02.836Z,8.42
2023-05-18T23:44:30.290Z,9.94
2023-05-18T23:46:57.774Z,9.90
2023-05-18T23:49:25.467Z,9.15
2023-05-18T23:51:53.697Z,9.18
2023-05-18T23:54:21.367Z,9.93
2023-05-18T23:56:50.697Z,9.57
2023-05-18T23:59:18.753Z,8.57
